Time;durP1;ratioP1;P1;durP2;ratioP2;P2;SDS_P1;SDS_P2;PMS_P1;PMS_P2;Temp;Humidity;BMP_temperature;BMP_pressure;BME280_temperature;BME280_humidity;BME280_pressure;Samples;Min_cycle;Max_cycle;Signal;HPM_P1;HPM_P2
2021/12/17 00:01:05;;;;;;;170.73;18.95;;;8.10;99.90;;;;;;5074598;28;20044;-75
2021/12/17 00:03:38;;;;;;;140.15;17.30;;;8.10;99.90;;;;;;5073800;28;20469;-76
2021/12/17 00:08:37;;;;;;;116.25;17.02;;;8.00;99.90;;;;;;5074903;28;20664;-75
2021/12/17 00:11:05;;;;;;;111.97;17.85;;;8.10;99.90;;;;;;5073909;28;20072;-75
2021/12/17 00:13:31;;;;;;;101.78;15.88;;;8.10;99.90;;;;;;5072370;28;20539;-76
2021/12/17 00:15:58;;;;;;;169.45;16.33;;;8.10;99.90;;;;;;5074760;28;20078;-75
2021/12/17 00:18:44;;;;;;;152.70;15.93;;;8.10;99.90;;;;;;5073769;28;20559;-74
2021/12/17 00:40:28;;;;;;;107.80;11.20;;;8.10;99.90;;;;;;5074448;28;20048;-74
2021/12/17 00:48:36;;;;;;;62.42;10.38;;;8.10;99.90;;;;;;5114840;28;20051;-76
2021/12/17 00:53:44;;;;;;;64.63;10.70;;;8.20;99.90;;;;;;5115244;28;20126;-74
2021/12/17 00:56:10;;;;;;;58.03;9.45;;;8.20;99.90;;;;;;5114131;28;20480;-75
2021/12/17 00:58:35;;;;;;;69.00;9.95;;;8.20;99.90;;;;;;5130076;27;20134;-75
2021/12/17 01:01:01;;;;;;;59.58;9.75;;;8.20;99.90;;;;;;5096072;28;20206;-74
2021/12/17 01:03:27;;;;;;;76.03;10.35;;;8.20;99.90;;;;;;5096409;28;20088;-73
2021/12/17 01:05:53;;;;;;;76.32;9.95;;;8.20;99.90;;;;;;5095965;28;20545;-74
2021/12/17 01:08:19;;;;;;;98.82;11.18;;;8.20;99.90;;;;;;5079349;28;20433;-74
2021/12/17 01:10:50;;;;;;;59.80;10.73;;;8.20;99.90;;;;;;5079031;28;20476;-74
2021/12/17 01:13:15;;;;;;;189.35;12.45;;;8.20;99.90;;;;;;5095805;28;20051;-74
2021/12/17 01:15:43;;;;;;;75.32;9.35;;;8.10;99.90;;;;;;5113609;28;20043;-74
2021/12/17 01:18:13;;;;;;;127.63;11.35;;;8.10;99.90;;;;;;5130067;27;20048;-75
2021/12/17 01:36:41;;;;;;;78.38;10.77;;;8.10;99.90;;;;;;5084437;28;20475;-75
2021/12/17 01:40:16;;;;;;;98.65;11.18;;;8.00;99.90;;;;;;5113345;28;20051;-75
2021/12/17 01:42:04;;;;;;;95.82;11.38;;;8.00;99.90;;;;;;5097308;28;20047;-77
2021/12/17 01:44:36;;;;;;;90.65;12.05;;;8.00;99.90;;;;;;5097098;28;20059;-76
2021/12/17 01:47:04;;;;;;;115.38;13.07;;;8.00;99.90;;;;;;5095847;28;20043;-75
2021/12/17 02:00:19;;;;;;;80.93;10.48;;;7.90;99.90;;;;;;5095374;28;20051;-74
2021/12/17 02:02:52;;;;;;;70.13;11.02;;;7.90;99.90;;;;;;5078356;28;20062;-74
2021/12/17 02:05:18;;;;;;;68.90;8.98;;;7.90;99.90;;;;;;5113229;28;20051;-73
2021/12/17 02:07:47;;;;;;;62.77;8.83;;;7.90;99.90;;;;;;5129294;27;20044;-74
2021/12/17 02:19:28;;;;;;;84.00;9.73;;;7.90;99.90;;;;;;5113708;28;20048;-75
2021/12/17 02:32:05;;;;;;;52.47;9.55;;;7.80;99.90;;;;;;5113098;28;20391;-75
2021/12/17 02:37:10;;;;;;;57.17;10.52;;;7.90;99.90;;;;;;5096731;28;20055;-75
2021/12/17 02:47:36;;;;;;;42.53;8.05;;;7.90;99.90;;;;;;5084257;28;20498;-74
2021/12/17 02:50:02;;;;;;;52.85;9.40;;;7.90;99.90;;;;;;5116728;28;20062;-75
2021/12/17 02:52:30;;;;;;;46.13;8.27;;;7.90;99.90;;;;;;5098603;28;20044;-74
2021/12/17 02:54:58;;;;;;;46.80;8.18;;;7.90;99.90;;;;;;5081681;28;20560;-75
2021/12/17 02:57:26;;;;;;;43.47;8.48;;;8.00;99.90;;;;;;5117069;28;20104;-75
2021/12/17 02:59:52;;;;;;;41.75;8.20;;;8.00;99.90;;;;;;5098160;28;20101;-74
2021/12/17 03:02:22;;;;;;;45.03;7.40;;;8.00;99.90;;;;;;5116404;28;20049;-74
2021/12/17 03:04:49;;;;;;;38.03;7.15;;;8.00;99.90;;;;;;5116796;28;20125;-75
2021/12/17 03:07:15;;;;;;;40.20;7.32;;;8.00;99.90;;;;;;5115505;27;20043;-74
2021/12/17 03:12:33;;;;;;;43.10;7.50;;;8.00;99.90;;;;;;5099109;28;20077;-75
2021/12/17 03:15:09;;;;;;;38.53;8.18;;;8.00;99.90;;;;;;5065922;28;20048;-74
2021/12/17 03:25:34;;;;;;;39.75;7.97;;;8.00;99.90;;;;;;5098219;28;20048;-75
2021/12/17 03:28:00;;;;;;;34.35;8.07;;;8.00;99.90;;;;;;5080930;28;20126;-74
2021/12/17 03:30:25;;;;;;;45.05;7.95;;;8.00;99.90;;;;;;5097144;28;20048;-74
2021/12/17 03:32:51;;;;;;;39.53;8.63;;;8.00;99.90;;;;;;5065089;28;20075;-74
2021/12/17 03:35:17;;;;;;;40.95;8.63;;;8.00;99.90;;;;;;5115846;28;20047;-74
2021/12/17 03:37:43;;;;;;;44.22;8.77;;;8.00;99.90;;;;;;5081187;28;20090;-75
2021/12/17 03:40:13;;;;;;;36.83;7.45;;;8.00;99.90;;;;;;5097536;28;20051;-75
2021/12/17 03:42:45;;;;;;;40.92;7.80;;;8.00;99.90;;;;;;5116281;28;20050;-75
2021/12/17 03:45:12;;;;;;;50.00;8.68;;;8.00;99.90;;;;;;5098856;28;20039;-74
2021/12/17 03:47:38;;;;;;;33.90;8.52;;;8.00;99.90;;;;;;5080739;28;20101;-75
2021/12/17 03:50:05;;;;;;;36.97;8.15;;;8.00;99.90;;;;;;5097202;28;20042;-75
2021/12/17 03:52:31;;;;;;;40.80;9.25;;;8.10;99.90;;;;;;5115455;28;20053;-75
2021/12/17 03:54:57;;;;;;;34.67;7.85;;;8.00;99.90;;;;;;5080602;28;20504;-74
2021/12/17 03:57:23;;;;;;;39.60;8.75;;;8.10;99.90;;;;;;5097403;28;20198;-75
2021/12/17 03:59:49;;;;;;;39.17;8.48;;;8.10;99.90;;;;;;5080605;28;20050;-75
2021/12/17 04:02:16;;;;;;;49.78;9.23;;;8.10;99.90;;;;;;5113884;28;20559;-75
2021/12/17 04:04:43;;;;;;;44.83;8.70;;;8.10;99.90;;;;;;5115764;28;20047;-75
2021/12/17 04:07:09;;;;;;;39.75;8.60;;;8.00;99.90;;;;;;5096966;28;20051;-77
2021/12/17 04:09:35;;;;;;;41.95;8.70;;;8.10;99.90;;;;;;5097885;28;20511;-76
2021/12/17 04:12:02;;;;;;;39.88;8.38;;;8.10;99.90;;;;;;5115937;28;20131;-73
2021/12/17 04:15:03;;;;;;;50.55;8.98;;;8.10;99.90;;;;;;5131077;27;20428;-75
2021/12/17 04:17:25;;;;;;;35.28;8.02;;;8.10;99.90;;;;;;5110387;28;20052;-74
2021/12/17 04:19:51;;;;;;;44.30;8.90;;;8.10;99.90;;;;;;5115979;28;20043;-74
2021/12/17 04:22:17;;;;;;;40.50;8.55;;;8.10;99.90;;;;;;5114311;28;20399;-75
2021/12/17 04:24:43;;;;;;;44.00;9.15;;;8.10;99.90;;;;;;5114112;28;20039;-76
2021/12/17 04:27:09;;;;;;;40.65;8.02;;;8.10;99.90;;;;;;5096954;28;20043;-76
2021/12/17 04:29:41;;;;;;;37.78;8.13;;;8.10;99.90;;;;;;5063400;28;20044;-75
2021/12/17 04:32:07;;;;;;;41.70;9.20;;;8.10;99.90;;;;;;5064572;28;20182;-74
2021/12/17 04:34:33;;;;;;;35.08;7.57;;;8.10;99.90;;;;;;5114900;28;20044;-75
2021/12/17 04:36:58;;;;;;;39.22;8.13;;;8.10;99.90;;;;;;5115103;28;20042;-75
2021/12/17 04:39:25;;;;;;;36.78;7.88;;;8.10;99.90;;;;;;5096446;28;20050;-75
2021/12/17 04:41:56;;;;;;;33.88;8.05;;;8.20;99.90;;;;;;5114732;28;20044;-75
2021/12/17 04:44:32;;;;;;;44.95;8.63;;;8.10;99.90;;;;;;5096377;28;20055;-75
2021/12/17 04:57:47;;;;;;;36.75;8.05;;;8.10;99.90;;;;;;5115159;28;20083;-74
2021/12/17 05:00:19;;;;;;;33.30;7.40;;;8.10;99.90;;;;;;5113451;28;20040;-76
2021/12/17 05:02:49;;;;;;;36.75;8.68;;;8.10;99.90;;;;;;5096288;28;20506;-75
2021/12/17 05:05:17;;;;;;;41.30;9.27;;;8.10;99.90;;;;;;5063254;28;20047;-75
2021/12/17 05:07:49;;;;;;;36.22;8.52;;;8.10;99.90;;;;;;5130382;27;20130;-75
2021/12/17 05:18:21;;;;;;;37.40;8.55;;;8.10;99.90;;;;;;5098922;28;20051;-76
2021/12/17 05:20:55;;;;;;;40.50;9.00;;;8.10;99.90;;;;;;5114524;28;20070;-76
2021/12/17 05:23:28;;;;;;;42.78;9.07;;;8.10;99.90;;;;;;5129779;27;20051;-77
2021/12/17 05:25:55;;;;;;;43.75;9.23;;;8.10;99.90;;;;;;5096362;28;20052;-76
2021/12/17 05:28:20;;;;;;;41.95;9.88;;;8.10;99.90;;;;;;5114254;28;20043;-75
2021/12/17 05:30:48;;;;;;;46.60;9.13;;;8.20;99.90;;;;;;5129764;27;20130;-76
2021/12/17 05:33:17;;;;;;;;;;;8.20;99.90;;;;;;5114076;28;20096;-76
2021/12/17 05:35:44;;;;;;;50.55;9.65;;;8.10;99.90;;;;;;5113605;28;19974;-75
2021/12/17 05:38:20;;;;;;;38.80;9.48;;;8.10;99.90;;;;;;5096845;28;20094;-77
2021/12/17 05:40:46;;;;;;;43.78;9.90;;;8.10;99.90;;;;;;5129477;27;20092;-75
2021/12/17 05:43:14;;;;;;;43.80;9.97;;;8.10;99.90;;;;;;5091831;28;20472;-75
2021/12/17 05:48:25;;;;;;;51.47;10.32;;;8.10;99.90;;;;;;5092999;28;20552;-76
2021/12/17 05:50:53;;;;;;;;;;;8.10;99.90;;;;;;5091957;28;20066;-76
2021/12/17 05:53:19;;;;;;;52.42;9.52;;;8.10;99.90;;;;;;5093387;28;19920;-76
2021/12/17 05:55:45;;;;;;;51.83;10.57;;;8.00;99.90;;;;;;5075015;28;20059;-76
2021/12/17 05:58:11;;;;;;;48.20;9.05;;;8.00;99.90;;;;;;5092979;28;20035;-76
2021/12/17 06:00:39;;;;;;;77.28;10.85;;;7.90;99.90;;;;;;5091346;28;20133;-76
2021/12/17 06:03:05;;;;;;;52.72;9.77;;;7.90;99.90;;;;;;5092945;28;20044;-76
2021/12/17 06:05:31;;;;;;;46.47;9.32;;;7.80;99.90;;;;;;5075084;28;20392;-76
2021/12/17 06:07:58;;;;;;;48.27;9.33;;;7.90;99.90;;;;;;5092933;28;20052;-76
2021/12/17 06:10:25;;;;;;;44.63;10.40;;;7.90;99.90;;;;;;5090766;28;20286;-76
2021/12/17 06:12:51;;;;;;;54.72;10.10;;;7.90;99.90;;;;;;5092400;28;20052;-75
2021/12/17 06:15:19;;;;;;;66.53;10.02;;;7.90;99.90;;;;;;5074612;28;20091;-77
2021/12/17 06:17:45;;;;;;;59.38;10.75;;;7.90;99.90;;;;;;5091644;28;20113;-75
2021/12/17 06:20:14;;;;;;;51.15;10.45;;;7.90;99.90;;;;;;5058040;28;20061;-74
2021/12/17 06:22:40;;;;;;;60.25;10.88;;;7.90;99.90;;;;;;5091784;28;20431;-74
2021/12/17 06:25:08;;;;;;;59.05;10.75;;;7.90;99.90;;;;;;5091603;28;20044;-74
2021/12/17 06:27:35;;;;;;;66.10;10.73;;;7.90;99.90;;;;;;5092521;28;20530;-74
2021/12/17 06:30:02;;;;;;;82.53;11.45;;;7.90;99.90;;;;;;5074716;28;20551;-75
2021/12/17 06:32:28;;;;;;;78.90;11.23;;;7.90;99.90;;;;;;5091397;28;20498;-74
2021/12/17 06:34:55;;;;;;;56.85;10.50;;;7.80;99.90;;;;;;5092178;28;20048;-75
2021/12/17 06:37:21;;;;;;;47.80;9.63;;;7.80;99.90;;;;;;5092400;28;20050;-77
2021/12/17 06:39:48;;;;;;;47.13;9.98;;;7.80;99.90;;;;;;5091212;28;20493;-75
2021/12/17 06:42:15;;;;;;;59.50;10.77;;;7.90;99.90;;;;;;5093103;28;20066;-76
2021/12/17 06:44:43;;;;;;;73.47;10.40;;;7.90;99.90;;;;;;5090482;28;20052;-75
2021/12/17 06:47:15;;;;;;;49.88;9.98;;;7.90;99.90;;;;;;5092434;28;20051;-75
2021/12/17 06:49:52;;;;;;;49.80;9.88;;;7.90;99.90;;;;;;5090797;28;20447;-75
2021/12/17 06:58:26;;;;;;;76.88;10.50;;;7.90;99.90;;;;;;5092260;28;20147;-75
2021/12/17 07:01:00;;;;;;;62.28;10.20;;;7.90;99.90;;;;;;5092125;28;20052;-75
2021/12/17 07:11:51;;;;;;;64.38;10.70;;;7.90;99.90;;;;;;5091181;28;20135;-75
2021/12/17 07:28:09;;;;;;;79.90;11.52;;;7.80;99.90;;;;;;5079164;28;20134;-75
2021/12/17 07:33:35;;;;;;;52.08;10.32;;;7.80;99.90;;;;;;5095781;28;20078;-75
2021/12/17 07:36:09;;;;;;;55.50;10.52;;;7.80;99.90;;;;;;5094548;28;20097;-75
2021/12/17 07:38:38;;;;;;;45.00;10.02;;;7.90;99.90;;;;;;5094330;28;20097;-75
2021/12/17 07:41:05;;;;;;;43.08;10.35;;;7.90;99.90;;;;;;5077182;28;20044;-74
2021/12/17 07:46:06;;;;;;;48.92;10.23;;;8.00;99.90;;;;;;5094778;28;20465;-74
2021/12/17 07:48:32;;;;;;;48.22;9.90;;;8.00;99.90;;;;;;5095015;28;20083;-75
2021/12/17 07:51:02;;;;;;;60.33;11.82;;;7.90;99.90;;;;;;5094919;28;20130;-74
2021/12/17 07:53:29;;;;;;;51.58;10.73;;;7.90;99.90;;;;;;5094792;28;20417;-76
2021/12/17 07:55:55;;;;;;;68.57;11.65;;;7.90;99.90;;;;;;5094248;28;20056;-75
2021/12/17 07:58:21;;;;;;;52.55;11.45;;;7.90;99.90;;;;;;5060609;28;20131;-75
2021/12/17 08:00:47;;;;;;;48.67;11.40;;;7.90;99.90;;;;;;5076956;28;20569;-75
2021/12/17 08:03:14;;;;;;;82.55;13.38;;;7.90;99.90;;;;;;5095737;28;20090;-75
2021/12/17 08:05:42;;;;;;;54.63;10.23;;;7.80;99.90;;;;;;5095292;28;20367;-75
2021/12/17 08:08:09;;;;;;;53.88;11.15;;;7.90;99.90;;;;;;5095053;28;20059;-74
2021/12/17 08:10:35;;;;;;;59.75;11.05;;;7.90;99.90;;;;;;5077512;28;20052;-74
2021/12/17 08:13:01;;;;;;;47.45;11.63;;;7.90;99.90;;;;;;5060586;28;20051;-75
2021/12/17 08:15:31;;;;;;;50.35;12.20;;;7.90;99.90;;;;;;5094486;28;20048;-75
2021/12/17 08:26:04;;;;;;;51.25;11.18;;;7.90;99.90;;;;;;5094543;28;20054;-75
2021/12/17 08:28:49;;;;;;;;;;;8.00;99.90;;;;;;5081266;28;20052;-77
2021/12/17 08:31:15;;;;;;;38.50;9.30;;;8.00;99.90;;;;;;5093316;28;19965;-75
2021/12/17 08:33:43;;;;;;;46.05;10.48;;;8.00;99.90;;;;;;5092872;28;20048;-74
2021/12/17 08:36:10;;;;;;;49.92;10.52;;;8.00;99.90;;;;;;5092956;28;20097;-74
2021/12/17 08:38:35;;;;;;;48.40;10.93;;;8.00;99.90;;;;;;5076632;28;20048;-75
2021/12/17 08:41:01;;;;;;;46.25;9.30;;;8.00;99.90;;;;;;5093230;28;20696;-74
2021/12/17 08:43:27;;;;;;;43.75;9.80;;;8.00;99.90;;;;;;5075837;28;20056;-76
2021/12/17 08:45:53;;;;;;;51.05;10.80;;;8.10;99.90;;;;;;5094464;28;20087;-74
2021/12/17 08:48:19;;;;;;;42.07;8.97;;;8.00;99.90;;;;;;5076807;28;20052;-74
2021/12/17 08:50:45;;;;;;;39.90;9.98;;;8.10;99.90;;;;;;5094270;28;20460;-75
2021/12/17 08:53:11;;;;;;;51.70;10.02;;;8.10;99.90;;;;;;5093692;28;20036;-75
2021/12/17 08:55:37;;;;;;;45.35;10.13;;;8.10;99.90;;;;;;5059361;28;20073;-75
2021/12/17 08:58:04;;;;;;;42.22;9.43;;;8.10;99.90;;;;;;5092497;28;20037;-74
2021/12/17 09:00:30;;;;;;;;;;;8.10;99.90;;;;;;5094040;28;20080;-75
2021/12/17 09:02:59;;;;;;;40.58;9.25;;;8.20;99.90;;;;;;5092839;28;20370;-74
2021/12/17 09:05:26;;;;;;;40.15;8.68;;;8.20;99.90;;;;;;5093926;28;20059;-75
2021/12/17 09:07:52;;;;;;;37.80;9.13;;;8.20;99.90;;;;;;5092316;28;20040;-75
2021/12/17 09:10:22;;;;;;;31.20;8.70;;;8.30;99.90;;;;;;5075849;28;20055;-74
2021/12/17 09:12:57;;;;;;;31.65;8.27;;;8.30;99.90;;;;;;5075770;28;20083;-74
2021/12/17 09:15:32;;;;;;;35.90;9.40;;;8.40;99.90;;;;;;5092642;28;20154;-76
2021/12/17 09:18:07;;;;;;;36.80;9.18;;;8.40;99.90;;;;;;5092195;28;20063;-75
2021/12/17 09:20:36;;;;;;;34.28;8.82;;;8.50;99.90;;;;;;5075425;28;20553;-74
2021/12/17 09:23:02;;;;;;;33.63;8.98;;;8.40;99.90;;;;;;5092664;28;20052;-74
2021/12/17 09:25:31;;;;;;;39.40;9.82;;;8.40;99.90;;;;;;5075901;28;20499;-74
2021/12/17 09:27:56;;;;;;;36.50;9.60;;;8.40;99.90;;;;;;5074574;28;20052;-75
2021/12/17 09:30:22;;;;;;;35.05;9.45;;;8.40;99.90;;;;;;5091896;28;20051;-74
2021/12/17 09:32:48;;;;;;;36.80;9.00;;;8.40;99.90;;;;;;5093594;28;20048;-74
2021/12/17 09:35:14;;;;;;;36.28;9.40;;;8.50;99.90;;;;;;5075237;28;20383;-74
2021/12/17 09:37:58;;;;;;;37.50;9.10;;;8.50;99.90;;;;;;5091844;28;20079;-73
2021/12/17 09:40:24;;;;;;;42.08;9.65;;;8.50;99.90;;;;;;5092530;28;20407;-75
2021/12/17 09:42:50;;;;;;;37.05;9.73;;;8.50;99.90;;;;;;5060336;28;20048;-74
2021/12/17 09:45:18;;;;;;;32.60;9.13;;;8.50;99.90;;;;;;5111852;28;20060;-76
2021/12/17 09:47:45;;;;;;;31.30;9.27;;;8.50;99.90;;;;;;5095187;28;20081;-74
2021/12/17 09:50:15;;;;;;;31.55;9.05;;;8.50;99.90;;;;;;5112598;28;20047;-75
2021/12/17 09:52:41;;;;;;;29.42;9.02;;;8.50;99.90;;;;;;5095168;28;20104;-75
2021/12/17 09:55:08;;;;;;;35.92;10.07;;;8.60;99.90;;;;;;5078407;28;20395;-75
2021/12/17 09:57:37;;;;;;;30.42;9.13;;;8.70;99.90;;;;;;5129283;27;20445;-76
2021/12/17 10:00:16;;;;;;;30.10;9.50;;;8.70;99.90;;;;;;5095030;28;20126;-76
2021/12/17 10:02:46;;;;;;;26.98;8.45;;;8.70;99.90;;;;;;5113329;28;20075;-75
2021/12/17 10:05:22;;;;;;;34.08;9.45;;;8.80;99.90;;;;;;5078249;28;20043;-75
2021/12/17 10:08:00;;;;;;;34.17;10.33;;;8.80;99.90;;;;;;5094893;28;20090;-75
2021/12/17 10:10:42;;;;;;;31.60;9.95;;;8.90;99.90;;;;;;5113733;28;20335;-75
2021/12/17 10:13:18;;;;;;;31.60;10.73;;;8.90;99.90;;;;;;5128817;27;20126;-75
2021/12/17 10:15:47;;;;;;;34.08;9.23;;;8.90;99.90;;;;;;5095251;28;20336;-75
2021/12/17 10:18:14;;;;;;;26.60;8.05;;;9.00;99.90;;;;;;5113298;28;20068;-75
2021/12/17 10:20:58;;;;;;;28.48;8.98;;;9.00;99.90;;;;;;5111590;28;20475;-77
2021/12/17 10:23:26;;;;;;;27.65;9.63;;;9.10;99.90;;;;;;5129206;27;20058;-74
2021/12/17 10:25:53;;;;;;;24.38;8.52;;;9.00;99.90;;;;;;5128539;28;20104;-73
2021/12/17 10:28:19;;;;;;;26.52;8.68;;;9.00;99.90;;;;;;5094640;28;20157;-74
2021/12/17 10:30:48;;;;;;;30.70;9.23;;;9.00;99.90;;;;;;5094591;28;20403;-74
2021/12/17 10:33:20;;;;;;;25.08;8.40;;;9.10;99.90;;;;;;5112257;28;20510;-74
2021/12/17 10:35:49;;;;;;;25.80;8.45;;;9.00;99.90;;;;;;5094551;28;20051;-74
2021/12/17 10:38:17;;;;;;;27.52;10.55;;;9.10;99.90;;;;;;5112756;28;20048;-74
2021/12/17 10:41:14;;;;;;;26.15;10.05;;;9.00;99.90;;;;;;5094477;28;20040;-76
2021/12/17 10:43:47;;;;;;;32.05;10.13;;;9.00;99.90;;;;;;5111307;28;20058;-73
2021/12/17 10:46:29;;;;;;;24.90;8.43;;;9.00;99.90;;;;;;5078180;28;20456;-73
2021/12/17 10:54:06;;;;;;;27.50;8.02;;;9.10;99.90;;;;;;5112828;28;20129;-74
2021/12/17 10:56:49;;;;;;;23.20;8.57;;;9.20;99.90;;;;;;5112556;28;20044;-74
2021/12/17 10:59:19;;;;;;;24.23;8.10;;;9.20;99.90;;;;;;5081486;28;20057;-74
2021/12/17 11:01:54;;;;;;;24.30;7.88;;;9.20;99.90;;;;;;5116459;28;20082;-74
2021/12/17 11:04:28;;;;;;;22.33;6.93;;;9.20;99.90;;;;;;5116977;28;20128;-72
2021/12/17 11:07:02;;;;;;;20.65;7.30;;;9.20;99.90;;;;;;5098321;28;20052;-74
2021/12/17 11:09:40;;;;;;;23.60;8.52;;;9.30;99.90;;;;;;5132561;27;20046;-74
2021/12/17 11:12:14;;;;;;;20.98;7.68;;;9.20;99.90;;;;;;5115632;28;20085;-73
2021/12/17 11:14:45;;;;;;;24.95;8.52;;;9.30;99.90;;;;;;5132213;27;20039;-74
2021/12/17 11:17:16;;;;;;;27.10;8.50;;;9.40;99.90;;;;;;5116388;28;20046;-74
2021/12/17 11:19:43;;;;;;;25.77;8.65;;;9.30;99.90;;;;;;5132689;27;20039;-74
2021/12/17 11:22:09;;;;;;;24.98;9.07;;;9.30;99.90;;;;;;5116195;28;20048;-74
2021/12/17 11:24:37;;;;;;;18.88;7.50;;;9.30;99.90;;;;;;5116657;28;20341;-73
2021/12/17 11:27:07;;;;;;;24.92;8.40;;;9.30;99.90;;;;;;5097716;28;20118;-72
2021/12/17 11:29:33;;;;;;;23.55;7.93;;;9.40;99.90;;;;;;5132401;27;20047;-73
2021/12/17 11:32:00;;;;;;;22.35;7.63;;;9.40;99.90;;;;;;5131587;27;20055;-74
2021/12/17 11:34:27;;;;;;;26.08;7.35;;;9.50;99.90;;;;;;5116641;28;20398;-75
2021/12/17 11:36:54;;;;;;;;;;;9.60;99.90;;;;;;5098023;28;20146;-73
2021/12/17 11:39:34;;;;;;;24.25;7.15;;;9.60;99.90;;;;;;5131525;27;19988;-74
2021/12/17 11:42:38;;;;;;;20.33;7.03;;;9.70;99.90;;;;;;5080186;28;20544;-74
2021/12/17 11:45:24;;;;;;;22.35;7.90;;;9.80;99.90;;;;;;5115822;28;20051;-74
2021/12/17 11:48:18;;;;;;;23.80;7.47;;;9.70;99.90;;;;;;5116021;28;20388;-75
2021/12/17 11:50:47;;;;;;;21.67;7.72;;;9.70;99.90;;;;;;5132048;27;20036;-74
2021/12/17 11:53:22;;;;;;;21.80;7.68;;;9.70;99.90;;;;;;5097509;28;20040;-74
2021/12/17 11:56:01;;;;;;;22.80;7.43;;;9.60;99.90;;;;;;5132130;27;20472;-76
2021/12/17 11:58:59;;;;;;;17.20;6.97;;;9.70;99.90;;;;;;5114993;28;20047;-74
2021/12/17 12:01:46;;;;;;;18.65;6.60;;;9.70;99.90;;;;;;5070455;28;20048;-74
2021/12/17 12:04:37;;;;;;;18.27;6.53;;;9.80;99.90;;;;;;5080024;28;20110;-74
2021/12/17 12:07:14;;;;;;;20.23;7.95;;;9.90;99.90;;;;;;5116138;28;20043;-75
2021/12/17 12:10:08;;;;;;;17.77;6.43;;;9.90;99.90;;;;;;5097273;28;20063;-75
2021/12/17 12:12:34;;;;;;;18.83;7.25;;;9.80;99.90;;;;;;5116126;28;20047;-74
2021/12/17 12:15:27;;;;;;;15.93;6.57;;;9.80;99.90;;;;;;5080513;28;20048;-73
2021/12/17 12:18:07;;;;;;;20.10;6.88;;;9.80;99.90;;;;;;5115421;28;20050;-75
2021/12/17 12:20:41;;;;;;;18.25;6.55;;;9.70;99.90;;;;;;5097123;28;20070;-74
2021/12/17 12:23:33;;;;;;;17.40;6.68;;;9.80;99.90;;;;;;5097745;28;20105;-74
2021/12/17 12:26:05;;;;;;;22.38;8.02;;;9.60;99.90;;;;;;5076390;28;20060;-73
2021/12/17 12:28:49;;;;;;;23.92;7.97;;;9.70;99.90;;;;;;5115839;27;20066;-77
2021/12/17 12:31:37;;;;;;;19.73;6.95;;;9.60;99.90;;;;;;5131367;27;20055;-74
2021/12/17 12:34:06;;;;;;;21.20;7.65;;;9.60;99.90;;;;;;5096965;28;20043;-73
2021/12/17 12:36:57;;;;;;;22.10;7.90;;;9.60;99.90;;;;;;5115697;28;20432;-75
2021/12/17 12:39:53;;;;;;;20.85;6.53;;;9.60;99.90;;;;;;5114662;28;20134;-74
2021/12/17 12:42:26;;;;;;;22.05;7.20;;;9.70;99.90;;;;;;5098444;28;20126;-74
2021/12/17 12:44:55;;;;;;;23.52;8.25;;;9.60;99.90;;;;;;5110044;28;20138;-76
2021/12/17 12:47:23;;;;;;;22.17;8.00;;;9.60;99.90;;;;;;5093371;28;20051;-74
2021/12/17 12:50:02;;;;;;;;;;;;;;;;;;;;;
2021/12/17 12:52:34;;;;;;;22.60;7.57;;;9.50;99.90;;;;;;5092996;28;20048;-73
2021/12/17 12:54:59;;;;;;;21.52;7.50;;;9.50;99.90;;;;;;5093728;28;20074;-73
2021/12/17 12:57:39;;;;;;;19.02;7.00;;;9.50;99.90;;;;;;5094230;28;20052;-74
2021/12/17 13:00:16;;;;;;;24.13;7.25;;;9.50;99.90;;;;;;5094106;28;20040;-75
2021/12/17 13:02:43;;;;;;;23.27;7.63;;;9.50;99.90;;;;;;5094353;28;20075;-74
2021/12/17 13:05:09;;;;;;;21.35;6.95;;;9.50;99.90;;;;;;5093302;28;20070;-74
2021/12/17 13:08:08;;;;;;;21.15;7.07;;;9.50;99.90;;;;;;5076033;28;20116;-74
2021/12/17 13:10:36;;;;;;;26.17;7.65;;;9.50;99.90;;;;;;5053385;28;20157;-74
2021/12/17 13:13:17;;;;;;;21.73;7.07;;;9.50;99.90;;;;;;5093784;28;20105;-74
2021/12/17 13:15:49;;;;;;;23.50;7.30;;;9.50;99.90;;;;;;5093037;28;20044;-74
2021/12/17 13:23:52;;;;;;;18.73;6.70;;;9.50;99.90;;;;;;5093578;28;20059;-73
2021/12/17 13:26:23;;;;;;;21.02;6.90;;;9.50;99.90;;;;;;5093308;28;20131;-74
2021/12/17 13:28:59;;;;;;;20.65;7.35;;;9.50;99.90;;;;;;5093044;28;20189;-75
2021/12/17 13:31:54;;;;;;;20.20;7.43;;;9.50;99.90;;;;;;5094248;28;20041;-74
2021/12/17 13:34:24;;;;;;;20.00;6.78;;;9.40;99.90;;;;;;5076219;28;20070;-73
2021/12/17 13:36:57;;;;;;;22.08;7.35;;;9.40;99.90;;;;;;5075112;28;20059;-74
2021/12/17 13:39:26;;;;;;;21.42;7.22;;;9.40;99.90;;;;;;5075661;28;20189;-74
2021/12/17 13:41:53;;;;;;;22.58;7.70;;;9.40;99.90;;;;;;5075331;28;20051;-75
2021/12/17 13:44:28;;;;;;;27.88;7.97;;;9.30;99.90;;;;;;5091900;28;20147;-74
2021/12/17 13:47:25;;;;;;;23.05;7.88;;;9.30;99.90;;;;;;5093736;28;20095;-77
2021/12/17 13:50:09;;;;;;;21.98;7.97;;;9.30;99.90;;;;;;5093811;28;20040;-74
2021/12/17 13:52:38;;;;;;;23.27;7.93;;;9.30;99.90;;;;;;5091932;28;20130;-73
2021/12/17 13:55:09;;;;;;;19.52;8.48;;;9.30;99.90;;;;;;5075085;28;20048;-74
2021/12/17 13:57:35;;;;;;;20.08;7.53;;;9.20;99.90;;;;;;5091743;28;20047;-73
2021/12/17 14:00:24;;;;;;;18.27;6.20;;;9.30;99.90;;;;;;5075255;28;20044;-74
2021/12/17 14:02:54;;;;;;;16.30;5.78;;;9.30;99.90;;;;;;5092336;28;20051;-74
2021/12/17 14:05:29;;;;;;;17.17;5.97;;;9.40;99.90;;;;;;5091599;28;20132;-74
2021/12/17 14:08:00;;;;;;;15.30;5.00;;;9.40;99.90;;;;;;5092145;28;20083;-76
2021/12/17 14:10:31;;;;;;;10.32;3.42;;;9.40;99.90;;;;;;5093330;28;20044;-73
2021/12/17 14:12:57;;;;;;;10.00;3.00;;;9.50;99.90;;;;;;5091577;28;20048;-78
2021/12/17 14:15:28;;;;;;;10.57;3.33;;;9.40;99.90;;;;;;5091685;28;20139;-74
2021/12/17 14:17:55;;;;;;;8.80;2.70;;;9.40;99.90;;;;;;5092602;28;20063;-74
2021/12/17 14:20:23;;;;;;;7.88;2.47;;;9.40;99.90;;;;;;5092609;28;20052;-75
2021/12/17 14:22:52;;;;;;;5.32;2.05;;;9.40;99.90;;;;;;5074861;28;20127;-73
2021/12/17 14:25:40;;;;;;;9.23;2.42;;;9.40;99.90;;;;;;5091331;28;20105;-72
2021/12/17 14:28:20;;;;;;;7.18;2.30;;;9.40;99.90;;;;;;5091235;28;20559;-75
2021/12/17 14:30:54;;;;;;;8.25;2.25;;;9.40;99.90;;;;;;5092962;28;20046;-75
2021/12/17 14:33:22;;;;;;;9.52;3.13;;;9.40;99.90;;;;;;5094781;28;20048;-74
2021/12/17 14:35:58;;;;;;;8.75;2.50;;;9.40;99.90;;;;;;5095513;28;20052;-74
2021/12/17 14:38:48;;;;;;;8.32;2.88;;;9.40;99.90;;;;;;5095697;28;20044;-73
2021/12/17 14:41:39;;;;;;;7.20;2.67;;;9.40;99.90;;;;;;5096950;28;20083;-73
2021/12/17 14:47:02;;;;;;;9.57;3.38;;;9.30;99.90;;;;;;5117321;28;20056;-74
2021/12/17 15:05:17;;;;;;;3.75;1.20;;;9.30;99.90;;;;;;5098785;28;20048;-74
2021/12/17 15:07:44;;;;;;;6.97;1.77;;;9.30;99.90;;;;;;5116615;28;20055;-74
2021/12/17 15:10:12;;;;;;;5.07;1.58;;;9.30;99.90;;;;;;5098378;28;20043;-74
2021/12/17 15:12:38;;;;;;;6.32;1.45;;;9.30;99.90;;;;;;5116655;28;20046;-74
2021/12/17 15:15:04;;;;;;;6.45;2.60;;;9.20;99.90;;;;;;5082045;28;20349;-77
2021/12/17 15:17:32;;;;;;;7.13;2.55;;;9.20;99.90;;;;;;5098885;28;20376;-74
2021/12/17 15:19:58;;;;;;;6.68;1.75;;;9.20;99.90;;;;;;5115344;28;20043;-74
2021/12/17 15:22:24;;;;;;;8.30;2.20;;;9.20;99.90;;;;;;5081273;28;20071;-74
2021/12/17 15:24:50;;;;;;;7.13;2.58;;;9.20;99.90;;;;;;5116857;28;20121;-74
2021/12/17 15:27:16;;;;;;;11.07;2.63;;;9.20;99.90;;;;;;5082100;28;20051;-74
2021/12/17 15:29:41;;;;;;;7.97;2.20;;;9.20;99.90;;;;;;5116128;28;20487;-74
2021/12/17 15:32:08;;;;;;;7.25;3.22;;;9.20;99.90;;;;;;5097709;28;20079;-75
2021/12/17 15:34:34;;;;;;;7.10;2.60;;;9.10;99.90;;;;;;5098161;28;20039;-74
2021/12/17 15:37:00;;;;;;;7.18;2.58;;;9.20;99.90;;;;;;5097667;28;20288;-73
2021/12/17 15:39:27;;;;;;;9.68;3.72;;;9.20;99.90;;;;;;5097624;28;20133;-74
2021/12/17 15:41:54;;;;;;;9.55;3.25;;;9.20;99.90;;;;;;5116581;28;20047;-75
2021/12/17 15:44:20;;;;;;;9.95;2.90;;;9.10;99.90;;;;;;5079957;28;20383;-74
2021/12/17 15:46:46;;;;;;;7.70;2.30;;;9.10;99.90;;;;;;5115766;28;20051;-74
2021/12/17 15:49:12;;;;;;;9.52;3.25;;;9.10;99.90;;;;;;5080605;28;20109;-74
2021/12/17 15:51:38;;;;;;;13.15;3.72;;;9.10;99.90;;;;;;5080889;28;20051;-74
2021/12/17 15:54:04;;;;;;;11.57;4.22;;;9.10;99.90;;;;;;5097764;28;20043;-74
2021/12/17 15:56:32;;;;;;;11.82;3.58;;;9.00;99.90;;;;;;5097417;28;20133;-74
2021/12/17 15:59:02;;;;;;;15.18;5.85;;;9.00;99.90;;;;;;5063798;28;20048;-73
2021/12/17 16:01:28;;;;;;;12.48;4.35;;;9.00;99.90;;;;;;5097695;28;20115;-74
2021/12/17 16:03:54;;;;;;;12.80;4.28;;;9.00;99.90;;;;;;5097088;28;20576;-74
2021/12/17 16:06:21;;;;;;;15.77;5.22;;;9.00;99.90;;;;;;5131645;27;20070;-75
2021/12/17 16:08:52;;;;;;;15.02;4.75;;;9.00;99.90;;;;;;5097226;28;20232;-75
2021/12/17 16:21:39;;;;;;;15.80;5.82;;;9.00;99.90;;;;;;5080791;28;20070;-74
2021/12/17 16:24:05;;;;;;;14.90;5.50;;;9.00;99.90;;;;;;5116097;28;20044;-73
2021/12/17 16:26:31;;;;;;;14.27;5.45;;;9.00;99.90;;;;;;5083239;28;20044;-73